sensor_id;sensor_type;location;lat;lon;timestamp;pressure;altitude;pressure_sealevel;temperature;humidity
84590;BME280;74819;48.816;8.740;2023-12-20T00:02:21;95414.97;;;22.97;36.43
84590;BME280;74819;48.816;8.740;2023-12-20T00:04:47;95405.41;;;22.94;36.53
84590;BME280;74819;48.816;8.740;2023-12-20T00:07:12;95399.38;;;22.92;36.87
84590;BME280;74819;48.816;8.740;2023-12-20T00:09:37;95405.63;;;22.93;36.65
84590;BME280;74819;48.816;8.740;2023-12-20T00:12:03;95394.59;;;22.94;36.33
84590;BME280;74819;48.816;8.740;2023-12-20T00:14:28;95400.22;;;22.93;36.31
84590;BME280;74819;48.816;8.740;2023-12-20T00:16:53;95394.81;;;22.93;36.62
84590;BME280;74819;48.816;8.740;2023-12-20T00:19:18;95381.69;;;22.90;36.79
84590;BME280;74819;48.816;8.740;2023-12-20T00:21:44;95393.97;;;22.92;36.58
84590;BME280;74819;48.816;8.740;2023-12-20T00:24:09;95382.50;;;22.90;36.50
84590;BME280;74819;48.816;8.740;2023-12-20T00:26:34;95383.56;;;22.89;36.59
84590;BME280;74819;48.816;8.740;2023-12-20T00:29:00;95378.34;;;22.88;36.85
84590;BME280;74819;48.816;8.740;2023-12-20T00:31:25;95379.59;;;22.85;36.89
84590;BME280;74819;48.816;8.740;2023-12-20T00:33:50;95379.41;;;22.87;36.26
84590;BME280;74819;48.816;8.740;2023-12-20T00:36:15;95377.31;;;22.89;36.52
84590;BME280;74819;48.816;8.740;2023-12-20T00:38:41;95381.06;;;22.88;36.27
84590;BME280;74819;48.816;8.740;2023-12-20T00:41:06;95379.19;;;22.88;36.55
84590;BME280;74819;48.816;8.740;2023-12-20T00:43:31;95379.19;;;22.88;36.58
84590;BME280;74819;48.816;8.740;2023-12-20T00:45:57;95379.19;;;22.88;36.42
84590;BME280;74819;48.816;8.740;2023-12-20T00:48:22;95377.72;;;22.86;36.66
84590;BME280;74819;48.816;8.740;2023-12-20T00:50:47;95376.88;;;22.85;36.79
84590;BME280;74819;48.816;8.740;2023-12-20T00:53:12;95379.41;;;22.87;36.57
84590;BME280;74819;48.816;8.740;2023-12-20T00:55:38;95370.06;;;22.89;36.39
84590;BME280;74819;48.816;8.740;2023-12-20T00:58:03;95380.66;;;22.84;36.53
84590;BME280;74819;48.816;8.740;2023-12-20T01:00:28;95370.47;;;22.86;36.71
84590;BME280;74819;48.816;8.740;2023-12-20T01:02:54;95367.16;;;22.84;36.58
84590;BME280;74819;48.816;8.740;2023-12-20T01:05:19;95370.25;;;22.81;36.83
84590;BME280;74819;48.816;8.740;2023-12-20T01:07:48;95370.03;;;22.83;36.79
84590;BME280;74819;48.816;8.740;2023-12-20T01:10:13;95373.97;;;22.80;36.85
84590;BME280;74819;48.816;8.740;2023-12-20T01:12:38;95381.88;;;22.82;36.68
84590;BME280;74819;48.816;8.740;2023-12-20T01:15:04;95375.25;;;22.84;36.51
84590;BME280;74819;48.816;8.740;2023-12-20T01:17:30;95383.13;;;22.86;36.39
84590;BME280;74819;48.816;8.740;2023-12-20T01:19:55;95384.16;;;22.85;36.57
84590;BME280;74819;48.816;8.740;2023-12-20T01:22:20;95383.13;;;22.86;36.46
84590;BME280;74819;48.816;8.740;2023-12-20T01:24:45;95385.00;;;22.85;36.04
84590;BME280;74819;48.816;8.740;2023-12-20T01:27:11;95382.94;;;22.81;36.18
84590;BME280;74819;48.816;8.740;2023-12-20T01:29:36;95386.47;;;22.81;36.18
84590;BME280;74819;48.816;8.740;2023-12-20T01:32:01;95385.63;;;22.81;36.61
84590;BME280;74819;48.816;8.740;2023-12-20T01:34:26;95386.25;;;22.83;36.15
84590;BME280;74819;48.816;8.740;2023-12-20T01:36:52;95373.13;;;22.80;36.52
84590;BME280;74819;48.816;8.740;2023-12-20T01:39:17;95372.97;;;22.81;36.15
84590;BME280;74819;48.816;8.740;2023-12-20T01:41:43;95382.28;;;22.85;36.04
84590;BME280;74819;48.816;8.740;2023-12-20T01:44:08;95374.19;;;22.85;36.30
84590;BME280;74819;48.816;8.740;2023-12-20T01:46:33;95379.59;;;22.85;36.27
84590;BME280;74819;48.816;8.740;2023-12-20T01:48:59;95384.56;;;22.82;36.55
84590;BME280;74819;48.816;8.740;2023-12-20T01:51:25;95382.28;;;22.85;36.43
84590;BME280;74819;48.816;8.740;2023-12-20T01:53:52;95376.47;;;22.82;36.56
84590;BME280;74819;48.816;8.740;2023-12-20T01:56:19;95383.13;;;22.79;36.36
84590;BME280;74819;48.816;8.740;2023-12-20T01:58:46;95378.34;;;22.81;36.27
84590;BME280;74819;48.816;8.740;2023-12-20T02:01:12;95377.72;;;22.79;36.04
84590;BME280;74819;48.816;8.740;2023-12-20T02:03:41;95385.19;;;22.77;36.19
84590;BME280;74819;48.816;8.740;2023-12-20T02:06:07;95388.53;;;22.79;36.17
84590;BME280;74819;48.816;8.740;2023-12-20T02:08:33;95384.16;;;22.78;36.25
84590;BME280;74819;48.816;8.740;2023-12-20T02:10:58;95389.78;;;22.83;36.35
84590;BME280;74819;48.816;8.740;2023-12-20T02:13:24;95384.97;;;22.79;35.93
84590;BME280;74819;48.816;8.740;2023-12-20T02:15:50;95385.19;;;22.77;36.01
84590;BME280;74819;48.816;8.740;2023-12-20T02:18:15;95392.91;;;22.80;36.08
84590;BME280;74819;48.816;8.740;2023-12-20T02:20:41;95391.22;;;22.79;36.41
84590;BME280;74819;48.816;8.740;2023-12-20T02:23:07;95387.91;;;22.77;36.39
84590;BME280;74819;48.816;8.740;2023-12-20T02:25:32;95390.59;;;22.77;36.42
84590;BME280;74819;48.816;8.740;2023-12-20T02:27:57;95390.59;;;22.77;36.00
84590;BME280;74819;48.816;8.740;2023-12-20T02:30:23;95390.59;;;22.77;36.02
84590;BME280;74819;48.816;8.740;2023-12-20T02:32:49;95397.03;;;22.76;36.17
84590;BME280;74819;48.816;8.740;2023-12-20T02:35:15;95398.91;;;22.82;35.72
84590;BME280;74819;48.816;8.740;2023-12-20T02:37:40;95398.91;;;22.82;35.94
84590;BME280;74819;48.816;8.740;2023-12-20T02:40:06;95393.31;;;22.77;35.93
84590;BME280;74819;48.816;8.740;2023-12-20T02:42:31;95400.16;;;22.80;35.86
84590;BME280;74819;48.816;8.740;2023-12-20T02:44:57;95393.31;;;22.77;35.93
84590;BME280;74819;48.816;8.740;2023-12-20T02:47:22;95397.28;;;22.81;35.87
84590;BME280;74819;48.816;8.740;2023-12-20T02:49:48;95397.69;;;22.78;35.66
84590;BME280;74819;48.816;8.740;2023-12-20T02:52:14;95400.38;;;22.78;36.12
84590;BME280;74819;48.816;8.740;2023-12-20T02:54:39;95399.31;;;22.79;35.74
84590;BME280;74819;48.816;8.740;2023-12-20T02:57:04;95398.31;;;22.80;36.02
84590;BME280;74819;48.816;8.740;2023-12-20T02:59:30;95403.09;;;22.78;35.93
84590;BME280;74819;48.816;8.740;2023-12-20T03:01:55;95402.25;;;22.78;36.00
84590;BME280;74819;48.816;8.740;2023-12-20T03:04:20;95407.25;;;22.81;35.84
84590;BME280;74819;48.816;8.740;2023-12-20T03:06:45;95398.72;;;22.77;36.27
84590;BME280;74819;48.816;8.740;2023-12-20T03:09:11;95409.94;;;22.81;35.92
84590;BME280;74819;48.816;8.740;2023-12-20T03:11:36;95406.81;;;22.77;35.52
84590;BME280;74819;48.816;8.740;2023-12-20T03:14:01;95414.50;;;22.80;35.80
84590;BME280;74819;48.816;8.740;2023-12-20T03:16:27;95420.31;;;22.77;35.83
84590;BME280;74819;48.816;8.740;2023-12-20T03:18:52;95421.59;;;22.81;35.74
84590;BME280;74819;48.816;8.740;2023-12-20T03:21:17;95422.00;;;22.78;35.84
84590;BME280;74819;48.816;8.740;2023-12-20T03:23:43;95419.69;;;22.75;35.69
84590;BME280;74819;48.816;8.740;2023-12-20T03:26:09;95420.72;;;22.74;35.87
84590;BME280;74819;48.816;8.740;2023-12-20T03:28:36;95417.84;;;22.76;35.81
84590;BME280;74819;48.816;8.740;2023-12-20T03:31:01;95411.38;;;22.77;35.80
84590;BME280;74819;48.816;8.740;2023-12-20T03:33:27;95417.63;;;22.77;35.94
84590;BME280;74819;48.816;8.740;2023-12-20T03:35:53;95417.63;;;22.77;35.54
84590;BME280;74819;48.816;8.740;2023-12-20T03:38:18;95424.88;;;22.77;35.99
84590;BME280;74819;48.816;8.740;2023-12-20T03:40:44;95422.41;;;22.75;35.80
84590;BME280;74819;48.816;8.740;2023-12-20T03:43:09;95415.94;;;22.76;35.56
84590;BME280;74819;48.816;8.740;2023-12-20T03:45:34;95409.72;;;22.76;35.89
84590;BME280;74819;48.816;8.740;2023-12-20T03:48:00;95417.00;;;22.75;36.07
84590;BME280;74819;48.816;8.740;2023-12-20T03:50:26;95415.31;;;22.74;35.78
84590;BME280;74819;48.816;8.740;2023-12-20T03:52:52;95413.25;;;22.76;35.54
84590;BME280;74819;48.816;8.740;2023-12-20T03:55:17;95417.84;;;22.76;35.74
84590;BME280;74819;48.816;8.740;2023-12-20T03:57:43;95419.91;;;22.80;35.78
84590;BME280;74819;48.816;8.740;2023-12-20T04:00:09;95422.81;;;22.79;35.39
84590;BME280;74819;48.816;8.740;2023-12-20T04:02:38;95425.72;;;22.77;35.62
84590;BME280;74819;48.816;8.740;2023-12-20T04:05:05;95407.84;;;22.76;35.89
84590;BME280;74819;48.816;8.740;2023-12-20T04:07:31;95411.16;;;22.72;35.63
84590;BME280;74819;48.816;8.740;2023-12-20T04:09:56;95427.59;;;22.77;35.72
84590;BME280;74819;48.816;8.740;2023-12-20T04:12:21;95418.66;;;22.76;35.95
84590;BME280;74819;48.816;8.740;2023-12-20T04:14:47;95434.47;;;22.73;35.95
84590;BME280;74819;48.816;8.740;2023-12-20T04:17:12;95430.69;;;22.74;35.44
84590;BME280;74819;48.816;8.740;2023-12-20T04:19:37;95431.13;;;22.77;35.89
84590;BME280;74819;48.816;8.740;2023-12-20T04:22:03;95434.84;;;22.76;35.61
84590;BME280;74819;48.816;8.740;2023-12-20T04:24:28;95434.84;;;22.76;35.40
84590;BME280;74819;48.816;8.740;2023-12-20T04:26:53;95427.81;;;22.75;35.79
84590;BME280;74819;48.816;8.740;2023-12-20T04:29:19;95432.38;;;22.75;35.76
84590;BME280;74819;48.816;8.740;2023-12-20T04:31:44;95443.38;;;22.73;35.80
84590;BME280;74819;48.816;8.740;2023-12-20T04:34:09;95449.59;;;22.74;35.79
84590;BME280;74819;48.816;8.740;2023-12-20T04:36:35;95437.78;;;22.75;35.85
84590;BME280;74819;48.816;8.740;2023-12-20T04:39:00;95446.72;;;22.75;35.89
84590;BME280;74819;48.816;8.740;2023-12-20T04:41:25;95435.47;;;22.72;35.44
84590;BME280;74819;48.816;8.740;2023-12-20T04:43:52;95435.25;;;22.73;35.42
84590;BME280;74819;48.816;8.740;2023-12-20T04:46:18;95444.03;;;22.75;35.42
84590;BME280;74819;48.816;8.740;2023-12-20T04:48:43;95436.75;;;22.76;35.92
84590;BME280;74819;48.816;8.740;2023-12-20T04:51:08;95444.63;;;22.77;35.86
84590;BME280;74819;48.816;8.740;2023-12-20T04:53:33;95441.09;;;22.77;35.86
84590;BME280;74819;48.816;8.740;2023-12-20T04:55:59;95441.31;;;22.75;35.40
84590;BME280;74819;48.816;8.740;2023-12-20T04:58:24;95450.66;;;22.73;35.65
84590;BME280;74819;48.816;8.740;2023-12-20T05:00:49;95441.94;;;22.77;35.94
84590;BME280;74819;48.816;8.740;2023-12-20T05:03:14;95453.78;;;22.76;35.52
84590;BME280;74819;48.816;8.740;2023-12-20T05:05:40;95460.22;;;22.75;35.44
84590;BME280;74819;48.816;8.740;2023-12-20T05:08:05;95461.88;;;22.76;35.67
84590;BME280;74819;48.816;8.740;2023-12-20T05:10:31;95466.25;;;22.77;35.90
84590;BME280;74819;48.816;8.740;2023-12-20T05:12:56;95471.66;;;22.77;35.41
84590;BME280;74819;48.816;8.740;2023-12-20T05:15:21;95466.25;;;22.77;35.66
84590;BME280;74819;48.816;8.740;2023-12-20T05:17:46;95481.63;;;22.77;35.63
84590;BME280;74819;48.816;8.740;2023-12-20T05:20:11;95474.34;;;22.77;35.74
84590;BME280;74819;48.816;8.740;2023-12-20T05:22:37;95475.38;;;22.76;35.91
84590;BME280;74819;48.816;8.740;2023-12-20T05:25:02;95478.94;;;22.77;35.61
84590;BME280;74819;48.816;8.740;2023-12-20T05:27:28;95479.97;;;22.76;35.54
84590;BME280;74819;48.816;8.740;2023-12-20T05:29:53;95484.53;;;22.75;35.65
84590;BME280;74819;48.816;8.740;2023-12-20T05:32:22;95492.44;;;22.77;35.68
84590;BME280;74819;48.816;8.740;2023-12-20T05:34:47;95501.16;;;22.72;35.75
84590;BME280;74819;48.816;8.740;2023-12-20T05:37:12;95497.00;;;22.76;35.46
84590;BME280;74819;48.816;8.740;2023-12-20T05:39:38;95501.38;;;22.77;35.43
84590;BME280;74819;48.816;8.740;2023-12-20T05:42:03;95494.69;;;22.73;35.93
84590;BME280;74819;48.816;8.740;2023-12-20T05:44:28;95513.88;;;22.78;35.72
84590;BME280;74819;48.816;8.740;2023-12-20T05:46:54;95516.13;;;22.75;35.61
84590;BME280;74819;48.816;8.740;2023-12-20T05:49:19;95510.91;;;22.73;35.70
84590;BME280;74819;48.816;8.740;2023-12-20T05:51:44;95513.63;;;22.73;35.56
84590;BME280;74819;48.816;8.740;2023-12-20T05:54:10;95517.81;;;22.76;35.88
84590;BME280;74819;48.816;8.740;2023-12-20T05:56:35;95520.28;;;22.77;35.40
84590;BME280;74819;48.816;8.740;2023-12-20T05:59:00;95545.22;;;22.79;35.81
84590;BME280;74819;48.816;8.740;2023-12-20T06:01:25;95547.72;;;22.74;35.37
84590;BME280;74819;48.816;8.740;2023-12-20T06:03:51;95549.41;;;22.75;35.67
84590;BME280;74819;48.816;8.740;2023-12-20T06:06:16;95545.22;;;22.79;35.64
84590;BME280;74819;48.816;8.740;2023-12-20T06:08:42;95539.22;;;22.77;35.82
84590;BME280;74819;48.816;8.740;2023-12-20T06:11:08;95537.75;;;22.75;35.31
84590;BME280;74819;48.816;8.740;2023-12-20T06:13:33;95546.28;;;22.78;35.39
84590;BME280;74819;48.816;8.740;2023-12-20T06:15:59;95547.31;;;22.77;35.66
84590;BME280;74819;48.816;8.740;2023-12-20T06:18:24;95543.16;;;22.75;35.33
84590;BME280;74819;48.816;8.740;2023-12-20T06:20:49;95558.13;;;22.77;35.30
84590;BME280;74819;48.816;8.740;2023-12-20T06:23:15;95555.63;;;22.76;35.84
84590;BME280;74819;48.816;8.740;2023-12-20T06:25:40;95553.34;;;22.73;35.58
84590;BME280;74819;48.816;8.740;2023-12-20T06:28:06;95552.09;;;22.75;35.39
84590;BME280;74819;48.816;8.740;2023-12-20T06:30:31;95563.31;;;22.72;35.38
84590;BME280;74819;48.816;8.740;2023-12-20T06:32:58;95559.38;;;22.75;35.42
84590;BME280;74819;48.816;8.740;2023-12-20T06:35:23;95557.09;;;22.78;35.26
84590;BME280;74819;48.816;8.740;2023-12-20T06:37:49;95557.91;;;22.79;35.86
84590;BME280;74819;48.816;8.740;2023-12-20T06:40:14;95574.34;;;22.77;35.56
84590;BME280;74819;48.816;8.740;2023-12-20T06:42:39;95564.75;;;22.75;35.86
84590;BME280;74819;48.816;8.740;2023-12-20T06:45:05;95570.59;;;22.78;35.55
84590;BME280;74819;48.816;8.740;2023-12-20T06:47:30;95591.78;;;22.75;35.73
84590;BME280;74819;48.816;8.740;2023-12-20T06:49:55;95596.50;;;22.66;35.76
84590;BME280;74819;48.816;8.740;2023-12-20T06:52:21;95596.13;;;22.69;35.78
84590;BME280;74819;48.816;8.740;2023-12-20T06:54:46;95594.66;;;22.66;36.36
84590;BME280;74819;48.816;8.740;2023-12-20T06:57:11;95596.44;;;21.83;39.47
84590;BME280;74819;48.816;8.740;2023-12-20T06:59:43;95596.28;;;21.70;39.83
84590;BME280;74819;48.816;8.740;2023-12-20T07:02:09;95595.78;;;21.59;40.07
84590;BME280;74819;48.816;8.740;2023-12-20T07:04:39;95584.78;;;21.82;39.72
84590;BME280;74819;48.816;8.740;2023-12-20T07:07:04;95597.16;;;21.91;39.88
84590;BME280;74819;48.816;8.740;2023-12-20T07:09:29;95600.88;;;21.69;40.47
84590;BME280;74819;48.816;8.740;2023-12-20T07:11:55;95608.44;;;21.59;40.81
84590;BME280;74819;48.816;8.740;2023-12-20T07:14:20;95609.41;;;21.51;40.83
84590;BME280;74819;48.816;8.740;2023-12-20T07:16:45;95614.13;;;21.49;40.85
84590;BME280;74819;48.816;8.740;2023-12-20T07:19:10;95610.53;;;21.42;40.65
84590;BME280;74819;48.816;8.740;2023-12-20T07:21:36;95622.22;;;21.49;40.53
84590;BME280;74819;48.816;8.740;2023-12-20T07:24:01;95625.31;;;21.46;40.17
84590;BME280;74819;48.816;8.740;2023-12-20T07:26:26;95628.56;;;21.42;40.68
84590;BME280;74819;48.816;8.740;2023-12-20T07:28:52;95630.63;;;21.40;40.45
84590;BME280;74819;48.816;8.740;2023-12-20T07:31:17;95639.56;;;21.40;40.45
84590;BME280;74819;48.816;8.740;2023-12-20T07:33:42;95636.03;;;21.40;40.25
84590;BME280;74819;48.816;8.740;2023-12-20T07:36:07;95642.06;;;21.42;40.25
84590;BME280;74819;48.816;8.740;2023-12-20T07:38:33;95649.13;;;21.43;40.47
84590;BME280;74819;48.816;8.740;2023-12-20T07:40:59;95646.81;;;21.40;40.00
84590;BME280;74819;48.816;8.740;2023-12-20T07:43:24;95652.19;;;21.40;40.13
84590;BME280;74819;48.816;8.740;2023-12-20T07:45:49;95642.81;;;21.36;40.05
84590;BME280;74819;48.816;8.740;2023-12-20T07:48:15;95647.19;;;21.37;40.27
84590;BME280;74819;48.816;8.740;2023-12-20T07:50:41;95655.75;;;21.40;39.97
84590;BME280;74819;48.816;8.740;2023-12-20T07:53:06;95654.06;;;21.39;40.07
84590;BME280;74819;48.816;8.740;2023-12-20T07:55:31;95655.75;;;21.40;40.06
84590;BME280;74819;48.816;8.740;2023-12-20T07:57:57;95663.38;;;21.37;39.83
84590;BME280;74819;48.816;8.740;2023-12-20T08:00:23;95663.38;;;21.37;39.85
84590;BME280;74819;48.816;8.740;2023-12-20T08:02:48;95664.13;;;21.67;39.40
84590;BME280;74819;48.816;8.740;2023-12-20T08:05:14;95665.28;;;21.79;39.69
84590;BME280;74819;48.816;8.740;2023-12-20T08:07:39;95684.75;;;21.74;39.77
84590;BME280;74819;48.816;8.740;2023-12-20T08:10:05;95682.56;;;21.84;40.07
84590;BME280;74819;48.816;8.740;2023-12-20T08:12:30;95692.84;;;21.74;39.74
84590;BME280;74819;48.816;8.740;2023-12-20T08:14:56;95695.84;;;21.65;39.61
84590;BME280;74819;48.816;8.740;2023-12-20T08:17:22;95688.72;;;22.14;39.08
84590;BME280;74819;48.816;8.740;2023-12-20T08:19:48;95685.72;;;22.24;39.03
84590;BME280;74819;48.816;8.740;2023-12-20T08:22:13;95689.41;;;22.23;39.35
84590;BME280;74819;48.816;8.740;2023-12-20T08:24:39;95684.22;;;22.21;39.14
84590;BME280;74819;48.816;8.740;2023-12-20T08:27:04;95680.03;;;22.19;39.33
84590;BME280;74819;48.816;8.740;2023-12-20T08:29:30;95685.44;;;22.19;38.99
84590;BME280;74819;48.816;8.740;2023-12-20T08:31:55;95686.50;;;22.24;38.97
84590;BME280;74819;48.816;8.740;2023-12-20T08:34:21;95683.81;;;22.24;39.04
84590;BME280;74819;48.816;8.740;2023-12-20T08:36:46;95683.25;;;22.29;38.95
84590;BME280;74819;48.816;8.740;2023-12-20T08:39:12;95696.38;;;22.32;39.21
84590;BME280;74819;48.816;8.740;2023-12-20T08:41:37;95691.22;;;22.37;39.01
84590;BME280;74819;48.816;8.740;2023-12-20T08:44:02;95691.91;;;22.45;38.64
84590;BME280;74819;48.816;8.740;2023-12-20T08:46:28;95699.47;;;22.56;38.85
84590;BME280;74819;48.816;8.740;2023-12-20T08:48:54;95694.66;;;22.52;38.75
84590;BME280;74819;48.816;8.740;2023-12-20T08:51:19;95699.03;;;22.53;39.19
84590;BME280;74819;48.816;8.740;2023-12-20T08:53:46;95704.56;;;22.94;38.23
84590;BME280;74819;48.816;8.740;2023-12-20T08:56:12;95689.50;;;23.12;37.88
84590;BME280;74819;48.816;8.740;2023-12-20T08:58:38;95692.25;;;23.19;37.97
84590;BME280;74819;48.816;8.740;2023-12-20T09:01:03;95702.06;;;23.26;37.71
84590;BME280;74819;48.816;8.740;2023-12-20T09:03:28;95697.97;;;23.37;37.93
84590;BME280;74819;48.816;8.740;2023-12-20T09:05:54;95694.69;;;23.42;37.61
84590;BME280;74819;48.816;8.740;2023-12-20T09:08:19;95690.31;;;23.41;37.51
84590;BME280;74819;48.816;8.740;2023-12-20T09:10:44;95683.88;;;23.42;37.61
84590;BME280;74819;48.816;8.740;2023-12-20T09:13:09;95677.63;;;23.48;37.47
84590;BME280;74819;48.816;8.740;2023-12-20T09:15:35;95674.78;;;23.56;36.99
84590;BME280;74819;48.816;8.740;2023-12-20T09:18:00;95671.22;;;23.55;37.17
84590;BME280;74819;48.816;8.740;2023-12-20T09:20:26;95662.94;;;23.63;36.91
84590;BME280;74819;48.816;8.740;2023-12-20T09:22:52;95667.09;;;23.18;37.32
84590;BME280;74819;48.816;8.740;2023-12-20T09:25:17;95667.22;;;23.04;37.38
84590;BME280;74819;48.816;8.740;2023-12-20T09:27:43;95668.44;;;23.01;37.04
84590;BME280;74819;48.816;8.740;2023-12-20T09:30:08;95680.44;;;22.92;37.31
84590;BME280;74819;48.816;8.740;2023-12-20T09:32:34;95685.00;;;22.92;37.66
84590;BME280;74819;48.816;8.740;2023-12-20T09:34:59;95682.25;;;22.85;37.87
84590;BME280;74819;48.816;8.740;2023-12-20T09:37:28;95682.09;;;22.93;37.66
84590;BME280;74819;48.816;8.740;2023-12-20T09:39:54;95682.31;;;22.92;37.79
84590;BME280;74819;48.816;8.740;2023-12-20T09:42:37;95684.56;;;22.60;37.72
84590;BME280;74819;48.816;8.740;2023-12-20T09:45:03;95680.25;;;22.66;37.86
84590;BME280;74819;48.816;8.740;2023-12-20T09:47:33;95687.78;;;22.70;38.15
84590;BME280;74819;48.816;8.740;2023-12-20T09:49:58;95687.97;;;22.69;38.18
84590;BME280;74819;48.816;8.740;2023-12-20T09:52:24;95681.94;;;22.67;37.97
84590;BME280;74819;48.816;8.740;2023-12-20T09:54:51;95691.25;;;22.64;38.45
84590;BME280;74819;48.816;8.740;2023-12-20T09:57:17;95689.38;;;22.65;38.12
84590;BME280;74819;48.816;8.740;2023-12-20T09:59:43;95694.06;;;22.56;38.34
84590;BME280;74819;48.816;8.740;2023-12-20T10:02:12;95691.34;;;22.50;38.46
84590;BME280;74819;48.816;8.740;2023-12-20T10:04:43;95691.38;;;22.56;38.38
84590;BME280;74819;48.816;8.740;2023-12-20T10:07:11;95693.44;;;22.54;38.35
84590;BME280;74819;48.816;8.740;2023-12-20T10:09:36;95691.75;;;22.53;38.04
84590;BME280;74819;48.816;8.740;2023-12-20T10:12:02;95685.50;;;22.46;38.11
84590;BME280;74819;48.816;8.740;2023-12-20T10:14:27;95683.03;;;22.51;38.02
84590;BME280;74819;48.816;8.740;2023-12-20T10:16:52;95680.53;;;22.50;37.77
84590;BME280;74819;48.816;8.740;2023-12-20T10:19:19;95673.31;;;22.57;37.87
84590;BME280;74819;48.816;8.740;2023-12-20T10:21:45;95673.00;;;22.66;37.92
84590;BME280;74819;48.816;8.740;2023-12-20T10:24:16;95673.13;;;22.58;37.72
84590;BME280;74819;48.816;8.740;2023-12-20T10:26:42;95666.19;;;22.49;37.89
84590;BME280;74819;48.816;8.740;2023-12-20T10:29:07;95663.66;;;22.48;37.89
84590;BME280;74819;48.816;8.740;2023-12-20T10:31:33;95661.03;;;22.54;37.77
84590;BME280;74819;48.816;8.740;2023-12-20T10:34:01;95656.06;;;22.58;37.44
84590;BME280;74819;48.816;8.740;2023-12-20T10:36:27;95652.88;;;22.48;37.77
84590;BME280;74819;48.816;8.740;2023-12-20T10:38:54;95659.03;;;22.42;37.76
84590;BME280;74819;48.816;8.740;2023-12-20T10:41:25;95659.66;;;22.37;37.89
84590;BME280;74819;48.816;8.740;2023-12-20T10:43:51;95662.19;;;22.45;37.76
84590;BME280;74819;48.816;8.740;2023-12-20T10:46:17;95663.91;;;22.53;37.53
84590;BME280;74819;48.816;8.740;2023-12-20T10:48:44;95656.22;;;22.50;37.79
84590;BME280;74819;48.816;8.740;2023-12-20T10:51:10;95659.25;;;22.40;37.79
84590;BME280;74819;48.816;8.740;2023-12-20T10:53:36;95657.56;;;22.39;37.73
84590;BME280;74819;48.816;8.740;2023-12-20T10:56:02;95657.00;;;22.44;37.48
84590;BME280;74819;48.816;8.740;2023-12-20T10:58:29;95655.31;;;22.43;37.73
84590;BME280;74819;48.816;8.740;2023-12-20T11:01:00;95650.06;;;22.35;37.66
84590;BME280;74819;48.816;8.740;2023-12-20T11:03:32;95658.34;;;22.33;37.63
84590;BME280;74819;48.816;8.740;2023-12-20T11:06:40;95645.50;;;22.35;37.82
84590;BME280;74819;48.816;8.740;2023-12-20T11:09:25;95642.81;;;22.35;37.51
84590;BME280;74819;48.816;8.740;2023-12-20T11:14:51;95641.53;;;22.31;37.88
84590;BME280;74819;48.816;8.740;2023-12-20T11:17:15;95636.72;;;22.27;38.02
84590;BME280;74819;48.816;8.740;2023-12-20T11:20:04;95628.41;;;22.28;37.60
84590;BME280;74819;48.816;8.740;2023-12-20T11:22:30;95627.00;;;22.32;37.68
84590;BME280;74819;48.816;8.740;2023-12-20T11:25:07;95620.75;;;22.32;37.40
84590;BME280;74819;48.816;8.740;2023-12-20T11:27:37;95618.44;;;22.29;37.48
84590;BME280;74819;48.816;8.740;2023-12-20T11:30:05;95625.91;;;22.27;37.79
84590;BME280;74819;48.816;8.740;2023-12-20T11:32:35;95616.78;;;22.28;37.86
84590;BME280;74819;48.816;8.740;2023-12-20T11:37:35;95620.13;;;22.30;37.29
84590;BME280;74819;48.816;8.740;2023-12-20T11:40:06;95609.06;;;22.25;37.50
84590;BME280;74819;48.816;8.740;2023-12-20T11:45:08;95612.13;;;20.72;33.67
84590;BME280;74819;48.816;8.740;2023-12-20T11:47:34;95610.41;;;20.27;33.84
84590;BME280;74819;48.816;8.740;2023-12-20T11:50:00;95597.38;;;21.18;33.64
84590;BME280;74819;48.816;8.740;2023-12-20T11:52:28;95599.44;;;21.73;34.89
84590;BME280;74819;48.816;8.740;2023-12-20T11:54:54;95596.09;;;22.13;35.67
84590;BME280;74819;48.816;8.740;2023-12-20T11:57:19;95579.97;;;22.20;36.80
84590;BME280;74819;48.816;8.740;2023-12-20T11:59:44;95575.19;;;22.22;37.09
84590;BME280;74819;48.816;8.740;2023-12-20T12:02:12;95579.13;;;22.20;37.17
84590;BME280;74819;48.816;8.740;2023-12-20T12:04:37;95581.22;;;22.24;36.94
84590;BME280;74819;48.816;8.740;2023-12-20T12:07:03;95577.72;;;22.24;36.69
84590;BME280;74819;48.816;8.740;2023-12-20T12:09:28;95568.16;;;22.28;37.10
84590;BME280;74819;48.816;8.740;2023-12-20T12:11:54;95572.56;;;22.29;37.07
84590;BME280;74819;48.816;8.740;2023-12-20T12:14:20;95568.41;;;22.33;36.99
84590;BME280;74819;48.816;8.740;2023-12-20T12:16:46;95576.97;;;22.36;37.20
84590;BME280;74819;48.816;8.740;2023-12-20T12:19:24;95574.69;;;22.40;36.84
84590;BME280;74819;48.816;8.740;2023-12-20T12:21:50;95582.75;;;22.33;37.18
84590;BME280;74819;48.816;8.740;2023-12-20T12:24:20;95572.72;;;22.27;36.88
84590;BME280;74819;48.816;8.740;2023-12-20T12:26:51;95564.25;;;22.30;36.99
84590;BME280;74819;48.816;8.740;2023-12-20T12:29:16;95572.16;;;22.32;36.81
84590;BME280;74819;48.816;8.740;2023-12-20T12:31:41;95554.09;;;22.32;37.15
84590;BME280;74819;48.816;8.740;2023-12-20T12:34:07;95547.25;;;22.36;37.20
84590;BME280;74819;48.816;8.740;2023-12-20T12:36:34;95549.59;;;22.46;37.21
84590;BME280;74819;48.816;8.740;2023-12-20T12:39:02;95559.78;;;22.44;37.35
84590;BME280;74819;48.816;8.740;2023-12-20T12:41:29;95557.38;;;22.55;36.58
84590;BME280;74819;48.816;8.740;2023-12-20T12:43:54;95563.63;;;22.62;36.44
84590;BME280;74819;48.816;8.740;2023-12-20T12:46:19;95568.47;;;22.67;36.66
84590;BME280;74819;48.816;8.740;2023-12-20T12:48:45;95571.59;;;22.70;37.59
84590;BME280;74819;48.816;8.740;2023-12-20T12:51:11;95556.88;;;22.80;36.98
84590;BME280;74819;48.816;8.740;2023-12-20T12:53:38;95556.31;;;22.84;36.94
84590;BME280;74819;48.816;8.740;2023-12-20T12:56:04;95546.97;;;22.87;37.12
84590;BME280;74819;48.816;8.740;2023-12-20T12:58:29;95548.59;;;22.88;37.49
84590;BME280;74819;48.816;8.740;2023-12-20T13:00:55;95551.31;;;22.88;37.57
84590;BME280;74819;48.816;8.740;2023-12-20T13:23:59;95571.94;;;23.49;36.13